Time;durP1;ratioP1;P1;durP2;ratioP2;P2;SDS_P1;SDS_P2;PMS_P1;PMS_P2;Temp;Humidity;BMP_temperature;BMP_pressure;BME280_temperature;BME280_humidity;BME280_pressure;Samples;Min_cycle;Max_cycle;Signal;HPM_P1;HPM_P2
2022/07/20 00:00:13;;;;;;;10.80;2.70;;;26.80;45.60;;;;;;5072643;28;20040;-75
2022/07/20 00:02:39;;;;;;;6.38;2.17;;;26.80;45.80;;;;;;5055861;28;20037;-75
2022/07/20 00:05:05;;;;;;;7.72;2.35;;;26.80;45.60;;;;;;5072394;28;20131;-75
2022/07/20 00:07:31;;;;;;;6.00;2.33;;;26.70;45.90;;;;;;5055748;28;20052;-75
2022/07/20 00:12:41;;;;;;;6.72;2.33;;;26.60;45.70;;;;;;5072685;28;20127;-75
2022/07/20 00:15:07;;;;;;;6.30;2.30;;;26.60;45.90;;;;;;5072273;28;20504;-75
2022/07/20 00:17:32;;;;;;;5.53;1.90;;;26.60;46.00;;;;;;5072307;28;20128;-75
2022/07/20 00:19:58;;;;;;;8.07;2.60;;;26.50;45.80;;;;;;5072164;28;20119;-75
2022/07/20 00:22:23;;;;;;;4.75;2.35;;;26.50;45.90;;;;;;5072215;28;20041;-75
2022/07/20 00:24:49;;;;;;;6.22;2.35;;;26.50;46.10;;;;;;5055448;28;20124;-75
2022/07/20 00:27:14;;;;;;;7.15;2.22;;;26.40;46.00;;;;;;5072296;28;20077;-75
2022/07/20 00:29:40;;;;;;;8.52;3.00;;;26.40;46.00;;;;;;5072399;28;20393;-75
2022/07/20 00:32:06;;;;;;;8.90;2.45;;;26.30;45.90;;;;;;5072050;28;20037;-75
2022/07/20 00:34:31;;;;;;;9.73;2.25;;;26.30;46.00;;;;;;5071981;28;20048;-75
2022/07/20 00:36:57;;;;;;;4.45;2.15;;;26.30;46.20;;;;;;5072007;28;20040;-75
2022/07/20 00:39:23;;;;;;;6.35;2.33;;;26.30;46.20;;;;;;5072013;28;20044;-75
2022/07/20 00:41:48;;;;;;;4.82;2.40;;;26.20;46.40;;;;;;5055816;28;20048;-75
2022/07/20 00:44:14;;;;;;;6.38;2.20;;;26.20;46.40;;;;;;5071909;28;20409;-75
2022/07/20 00:46:43;;;;;;;8.90;2.40;;;26.20;46.50;;;;;;5071930;28;20032;-75
2022/07/20 00:49:10;;;;;;;7.97;2.58;;;26.10;46.60;;;;;;5055063;28;20044;-75
2022/07/20 00:51:38;;;;;;;8.18;2.30;;;26.10;46.80;;;;;;5072126;28;20063;-75
2022/07/20 00:54:05;;;;;;;6.82;2.63;;;26.00;46.80;;;;;;5071818;28;20028;-75
2022/07/20 00:56:32;;;;;;;5.63;2.38;;;26.00;46.90;;;;;;5055170;28;20049;-75
2022/07/20 00:58:57;;;;;;;8.18;3.08;;;26.00;46.90;;;;;;5072053;28;20055;-75
2022/07/20 01:01:23;;;;;;;5.13;2.25;;;26.00;46.90;;;;;;5072010;28;20041;-75
2022/07/20 01:03:49;;;;;;;7.57;2.42;;;25.90;47.00;;;;;;5071694;28;20044;-75
2022/07/20 01:06:15;;;;;;;5.57;2.70;;;25.90;47.20;;;;;;5071711;28;20051;-75
2022/07/20 01:08:41;;;;;;;9.15;2.78;;;25.80;47.50;;;;;;5071702;28;20048;-75
2022/07/20 01:11:06;;;;;;;6.72;2.67;;;25.80;47.40;;;;;;5075863;28;20029;-75
2022/07/20 01:13:34;;;;;;;5.07;2.42;;;25.80;47.40;;;;;;5075765;28;20041;-75
2022/07/20 01:16:00;;;;;;;5.25;2.65;;;25.70;47.30;;;;;;5075778;28;20040;-75
2022/07/20 01:18:25;;;;;;;5.05;2.28;;;25.70;47.60;;;;;;5075609;28;20117;-75
2022/07/20 01:20:51;;;;;;;7.78;2.72;;;25.70;47.70;;;;;;5075703;28;20132;-75
2022/07/20 01:23:18;;;;;;;6.95;2.63;;;25.60;47.60;;;;;;5075818;28;20048;-75
2022/07/20 01:25:44;;;;;;;5.28;2.67;;;25.60;47.70;;;;;;5075587;28;20045;-75
2022/07/20 01:28:11;;;;;;;8.45;2.88;;;25.50;47.80;;;;;;5075455;28;20095;-76
2022/07/20 01:30:38;;;;;;;5.93;2.60;;;25.50;47.70;;;;;;5075747;28;20128;-76
2022/07/20 01:33:07;;;;;;;11.35;2.72;;;25.50;48.40;;;;;;5075646;28;20086;-75
2022/07/20 01:35:33;;;;;;;6.88;2.67;;;25.40;48.40;;;;;;5075328;28;20574;-75
2022/07/20 01:37:58;;;;;;;10.50;3.05;;;25.40;48.20;;;;;;5058704;28;20044;-75
2022/07/20 01:40:24;;;;;;;8.27;2.83;;;25.40;48.30;;;;;;5075256;28;20052;-76
2022/07/20 01:42:50;;;;;;;4.70;2.60;;;25.30;48.50;;;;;;5075180;28;20071;-76
2022/07/20 01:45:15;;;;;;;12.32;3.53;;;25.30;48.30;;;;;;5075447;28;20115;-76
2022/07/20 01:47:41;;;;;;;7.93;2.67;;;25.30;48.50;;;;;;5075070;28;20090;-75
2022/07/20 01:50:08;;;;;;;6.80;3.17;;;25.30;49.30;;;;;;5075103;28;20028;-75
2022/07/20 01:52:33;;;;;;;7.13;2.60;;;25.20;48.50;;;;;;5075076;28;20051;-75
2022/07/20 01:54:59;;;;;;;5.38;2.47;;;25.20;48.40;;;;;;5058508;28;20033;-75
2022/07/20 01:57:25;;;;;;;6.97;2.50;;;25.20;48.60;;;;;;5058315;28;20412;-75
2022/07/20 01:59:50;;;;;;;9.73;2.92;;;25.10;48.60;;;;;;5074868;28;20067;-75
2022/07/20 02:02:16;;;;;;;7.78;3.00;;;25.10;48.80;;;;;;5075141;28;20040;-75
2022/07/20 02:04:41;;;;;;;4.97;2.80;;;25.00;48.80;;;;;;5058397;28;20519;-75
2022/07/20 02:07:07;;;;;;;6.53;2.50;;;25.10;48.60;;;;;;5074713;28;20489;-75
2022/07/20 02:09:33;;;;;;;5.05;2.75;;;25.00;48.90;;;;;;5074999;28;20033;-75
2022/07/20 02:11:58;;;;;;;8.32;2.83;;;25.00;48.80;;;;;;5074680;28;20536;-75
2022/07/20 02:14:24;;;;;;;5.80;2.50;;;24.90;48.90;;;;;;5074564;28;20090;-75
2022/07/20 02:16:50;;;;;;;5.10;2.50;;;24.90;49.00;;;;;;5057950;28;20036;-75
2022/07/20 02:19:15;;;;;;;8.90;2.88;;;24.90;49.20;;;;;;5074670;28;20059;-75
2022/07/20 02:21:41;;;;;;;6.78;3.10;;;24.80;49.00;;;;;;5057943;28;20451;-75
2022/07/20 02:24:07;;;;;;;5.38;2.70;;;24.80;49.10;;;;;;5074735;28;20127;-76
2022/07/20 02:26:32;;;;;;;8.70;3.08;;;24.80;49.30;;;;;;5074605;28;20489;-75
2022/07/20 02:28:58;;;;;;;8.20;3.00;;;24.80;49.30;;;;;;5057674;28;20037;-75
2022/07/20 02:31:24;;;;;;;5.38;2.60;;;24.80;49.50;;;;;;5074339;28;20119;-75
2022/07/20 02:33:50;;;;;;;11.40;2.92;;;24.70;49.60;;;;;;5074535;28;20123;-75
2022/07/20 02:36:17;;;;;;;7.20;2.78;;;24.70;49.60;;;;;;5057568;28;20402;-75
2022/07/20 02:38:43;;;;;;;6.93;2.65;;;24.70;49.80;;;;;;5057463;28;20048;-75
2022/07/20 02:41:09;;;;;;;9.50;3.20;;;24.60;49.60;;;;;;5074189;28;20041;-75
2022/07/20 02:43:35;;;;;;;5.25;2.72;;;24.60;49.60;;;;;;5057432;28;20059;-75
2022/07/20 02:46:01;;;;;;;5.00;2.63;;;24.60;49.80;;;;;;5074050;28;20044;-75
2022/07/20 02:48:26;;;;;;;9.68;2.85;;;24.50;49.80;;;;;;5073971;28;20032;-75
2022/07/20 02:50:52;;;;;;;8.05;3.15;;;24.50;50.00;;;;;;5057315;28;20037;-75
2022/07/20 02:53:17;;;;;;;9.43;3.10;;;24.50;50.10;;;;;;5057188;28;20071;-75
2022/07/20 02:55:44;;;;;;;5.10;2.80;;;24.50;50.20;;;;;;5073883;28;20115;-75
2022/07/20 02:58:11;;;;;;;6.57;2.70;;;24.40;50.20;;;;;;5074053;28;20036;-75
2022/07/20 03:00:38;;;;;;;5.72;2.80;;;24.40;50.20;;;;;;5073728;28;20412;-75
2022/07/20 03:03:04;;;;;;;9.75;3.03;;;24.40;50.20;;;;;;5057254;28;20093;-75
2022/07/20 03:05:30;;;;;;;8.70;2.63;;;24.30;50.30;;;;;;5074037;28;20139;-75
2022/07/20 03:07:56;;;;;;;11.05;2.97;;;24.30;50.30;;;;;;5073804;28;20505;-75
2022/07/20 03:10:22;;;;;;;7.65;2.80;;;24.30;50.40;;;;;;5056969;28;20524;-75
2022/07/20 03:12:47;;;;;;;5.20;2.90;;;24.30;50.50;;;;;;5073589;28;20036;-75
2022/07/20 03:15:13;;;;;;;5.72;2.60;;;24.30;50.60;;;;;;5073740;28;20036;-75
2022/07/20 03:17:44;;;;;;;5.57;2.70;;;24.20;50.50;;;;;;5056843;28;20473;-75
2022/07/20 03:20:12;;;;;;;5.72;2.67;;;24.20;50.50;;;;;;5056864;28;20044;-75
2022/07/20 03:22:39;;;;;;;7.28;2.70;;;24.20;50.50;;;;;;5073341;28;20081;-75
2022/07/20 03:25:05;;;;;;;11.38;3.15;;;24.10;50.60;;;;;;5073499;28;20127;-75
2022/07/20 03:27:31;;;;;;;7.50;2.53;;;24.10;50.70;;;;;;5073181;28;20037;-75
2022/07/20 03:29:56;;;;;;;6.95;3.15;;;24.10;50.90;;;;;;5073521;28;20025;-75
2022/07/20 03:32:22;;;;;;;5.78;3.03;;;24.10;50.90;;;;;;5055840;28;20559;-75
2022/07/20 03:34:47;;;;;;;7.90;2.90;;;24.00;50.90;;;;;;5073318;28;20033;-75
2022/07/20 03:37:13;;;;;;;6.32;2.88;;;24.00;50.90;;;;;;5073099;28;20431;-75
2022/07/20 03:39:38;;;;;;;10.73;3.10;;;24.00;51.00;;;;;;5073009;28;20043;-75
2022/07/20 03:42:04;;;;;;;10.23;3.10;;;24.00;51.00;;;;;;5073280;28;20036;-75
2022/07/20 03:44:29;;;;;;;7.90;2.88;;;24.00;51.00;;;;;;5073142;28;20382;-75
2022/07/20 03:46:55;;;;;;;9.32;2.83;;;24.00;51.00;;;;;;5072893;28;20507;-75
2022/07/20 03:49:21;;;;;;;9.13;3.10;;;23.90;51.00;;;;;;5072752;28;20123;-75
2022/07/20 03:51:46;;;;;;;8.32;3.00;;;23.90;51.10;;;;;;5072848;28;20028;-75
2022/07/20 03:54:12;;;;;;;7.25;3.67;;;23.90;51.20;;;;;;5056093;28;20044;-75
2022/07/20 03:56:40;;;;;;;6.18;3.10;;;23.90;51.30;;;;;;5056064;28;20041;-75
2022/07/20 03:59:07;;;;;;;8.95;2.90;;;23.90;51.40;;;;;;5072600;28;20550;-75
2022/07/20 04:01:33;;;;;;;9.18;3.38;;;23.80;51.40;;;;;;5072580;28;20123;-75
2022/07/20 04:03:58;;;;;;;9.02;3.17;;;23.80;51.40;;;;;;5072710;28;20123;-75
2022/07/20 04:06:24;;;;;;;6.78;3.20;;;23.80;51.40;;;;;;5072806;28;20032;-75
2022/07/20 04:08:49;;;;;;;10.73;3.08;;;23.80;51.50;;;;;;5072400;28;20443;-75
2022/07/20 04:11:15;;;;;;;9.13;3.47;;;23.80;51.70;;;;;;5072402;28;20040;-75
2022/07/20 04:13:40;;;;;;;6.20;2.90;;;23.80;51.70;;;;;;5072295;28;20119;-75
2022/07/20 04:16:06;;;;;;;7.53;3.63;;;23.80;51.60;;;;;;5072330;28;20043;-75
2022/07/20 04:18:32;;;;;;;4.72;2.85;;;23.80;51.90;;;;;;5072158;28;20040;-75
2022/07/20 04:20:57;;;;;;;5.53;2.70;;;23.80;52.00;;;;;;5072272;28;20040;-75
2022/07/20 04:23:23;;;;;;;7.88;3.13;;;23.80;52.10;;;;;;5055825;28;20048;-75
2022/07/20 04:25:49;;;;;;;10.90;3.28;;;23.80;51.90;;;;;;5072231;28;20037;-75
2022/07/20 04:28:14;;;;;;;10.88;2.90;;;23.80;51.90;;;;;;5055456;28;20047;-76
2022/07/20 04:30:40;;;;;;;8.60;3.25;;;23.80;52.20;;;;;;5055537;28;20110;-75
2022/07/20 04:33:05;;;;;;;6.82;3.20;;;23.80;52.00;;;;;;5072290;28;20044;-75
2022/07/20 04:35:31;;;;;;;9.70;3.03;;;23.80;52.40;;;;;;5072104;28;20107;-75
2022/07/20 04:37:57;;;;;;;6.90;3.30;;;23.80;52.50;;;;;;5055354;28;20052;-75
2022/07/20 04:40:22;;;;;;;8.27;3.65;;;23.80;52.40;;;;;;5055350;28;20075;-75
2022/07/20 04:42:48;;;;;;;8.70;3.10;;;23.80;52.50;;;;;;5072213;28;20036;-75
2022/07/20 04:45:13;;;;;;;7.95;3.05;;;23.80;52.50;;;;;;5055535;28;20127;-75
2022/07/20 04:47:39;;;;;;;5.97;3.33;;;23.80;52.60;;;;;;5071848;28;20496;-75
2022/07/20 04:50:05;;;;;;;5.10;2.78;;;23.80;52.80;;;;;;5071865;28;20044;-75
2022/07/20 04:52:31;;;;;;;8.15;3.00;;;23.80;52.80;;;;;;5072098;28;20045;-75
2022/07/20 04:54:56;;;;;;;8.27;2.95;;;23.80;53.00;;;;;;5055112;28;20405;-75
2022/07/20 04:57:22;;;;;;;6.43;3.13;;;23.80;53.10;;;;;;5055143;28;20112;-75
2022/07/20 04:59:47;;;;;;;10.02;3.38;;;23.80;53.30;;;;;;5072027;28;20040;-75
2022/07/20 05:02:13;;;;;;;7.82;3.10;;;23.80;53.50;;;;;;5071803;28;20663;-75
2022/07/20 05:04:38;;;;;;;9.27;3.20;;;23.80;53.50;;;;;;5071668;28;20053;-75
2022/07/20 05:07:04;;;;;;;5.65;2.97;;;23.90;53.60;;;;;;5071720;28;20047;-75
2022/07/20 05:09:32;;;;;;;6.72;3.10;;;23.90;53.60;;;;;;5055309;28;20124;-75
2022/07/20 05:11:58;;;;;;;11.32;2.72;;;23.90;53.80;;;;;;5071631;28;20082;-75
2022/07/20 05:14:24;;;;;;;6.38;3.08;;;24.00;54.00;;;;;;5071612;28;20447;-75
2022/07/20 05:16:49;;;;;;;10.98;3.10;;;24.00;54.40;;;;;;5054958;28;20033;-75
2022/07/20 05:19:15;;;;;;;13.10;3.42;;;24.00;54.60;;;;;;5071509;28;20048;-75
2022/07/20 05:21:40;;;;;;;9.13;3.08;;;24.00;54.30;;;;;;5071539;28;20086;-75
2022/07/20 05:24:06;;;;;;;7.60;2.90;;;24.00;54.20;;;;;;5071498;28;20058;-75
2022/07/20 05:26:32;;;;;;;5.85;3.10;;;24.00;53.90;;;;;;5071759;28;20051;-75
2022/07/20 05:28:58;;;;;;;8.57;3.05;;;24.00;54.10;;;;;;5071504;28;20041;-75
2022/07/20 05:31:23;;;;;;;6.53;2.80;;;24.00;54.20;;;;;;5054811;28;20539;-75
2022/07/20 05:33:49;;;;;;;5.10;2.88;;;24.10;54.30;;;;;;5071683;28;20048;-75
2022/07/20 05:36:14;;;;;;;6.28;2.88;;;24.10;54.30;;;;;;5070779;28;20188;-75
2022/07/20 05:38:40;;;;;;;8.65;3.22;;;24.10;54.30;;;;;;5071703;28;20033;-75
2022/07/20 05:41:06;;;;;;;8.00;3.35;;;24.20;54.50;;;;;;5071702;28;20447;-75
2022/07/20 05:43:32;;;;;;;6.97;3.38;;;24.10;54.50;;;;;;5071558;28;20127;-75
2022/07/20 05:45:58;;;;;;;9.98;3.13;;;24.20;54.70;;;;;;5054716;28;20127;-75
2022/07/20 05:48:23;;;;;;;8.80;3.22;;;24.20;54.80;;;;;;5071250;28;20040;-75
2022/07/20 05:50:49;;;;;;;7.95;3.50;;;24.20;55.00;;;;;;5071582;28;20075;-75
2022/07/20 05:53:15;;;;;;;10.15;3.08;;;24.20;55.30;;;;;;5071201;28;20040;-75
2022/07/20 05:55:41;;;;;;;8.68;3.30;;;24.20;55.40;;;;;;5056218;28;20040;-75
2022/07/20 05:58:08;;;;;;;8.85;3.28;;;24.20;55.40;;;;;;5058558;28;20040;-75
2022/07/20 06:00:35;;;;;;;5.43;3.10;;;24.30;55.60;;;;;;5074903;28;20053;-75
2022/07/20 06:03:01;;;;;;;7.05;3.22;;;24.30;55.70;;;;;;5075866;28;20048;-75
2022/07/20 06:05:26;;;;;;;8.68;3.55;;;24.30;55.50;;;;;;5058172;28;20432;-75
2022/07/20 06:08:02;;;;;;;7.28;3.50;;;24.40;55.80;;;;;;5074910;28;20068;-75
2022/07/20 06:10:30;;;;;;;6.20;3.38;;;24.50;56.10;;;;;;5074761;28;20047;-75
2022/07/20 06:12:57;;;;;;;8.52;3.35;;;24.50;56.10;;;;;;5074662;28;20550;-75
2022/07/20 06:15:25;;;;;;;11.35;3.97;;;24.50;56.40;;;;;;5074667;28;20033;-75
2022/07/20 06:17:51;;;;;;;8.25;3.47;;;24.50;56.50;;;;;;5074596;28;20485;-75
2022/07/20 06:20:17;;;;;;;8.07;3.35;;;24.60;56.80;;;;;;5074643;28;20090;-75
2022/07/20 06:22:44;;;;;;;9.80;3.22;;;24.70;57.00;;;;;;5074527;28;20037;-75
2022/07/20 06:25:13;;;;;;;11.05;3.55;;;24.70;57.00;;;;;;5074438;28;20041;-75
2022/07/20 06:27:39;;;;;;;9.95;3.35;;;24.80;57.10;;;;;;5074621;28;20044;-75
2022/07/20 06:30:06;;;;;;;10.23;3.40;;;24.90;56.60;;;;;;5074464;28;20047;-75
2022/07/20 06:32:32;;;;;;;8.73;3.30;;;25.00;56.40;;;;;;5074626;28;20114;-75
2022/07/20 06:34:58;;;;;;;8.93;3.40;;;25.10;56.40;;;;;;5057829;28;20079;-75
2022/07/20 06:37:24;;;;;;;9.90;3.33;;;25.10;56.10;;;;;;5074531;28;20400;-75
2022/07/20 06:39:50;;;;;;;9.73;3.35;;;25.30;56.30;;;;;;5074228;28;20040;-75
2022/07/20 06:42:17;;;;;;;9.77;3.70;;;25.40;56.20;;;;;;5074472;28;20032;-75
2022/07/20 06:44:43;;;;;;;10.20;3.67;;;25.50;55.10;;;;;;5074036;28;20119;-75
2022/07/20 06:47:09;;;;;;;9.63;3.58;;;25.60;54.10;;;;;;5074021;28;20509;-75
2022/07/20 06:49:35;;;;;;;8.32;3.40;;;25.70;54.00;;;;;;5074034;28;20123;-76
2022/07/20 06:52:00;;;;;;;12.02;2.90;;;25.80;54.60;;;;;;5074278;28;20036;-76
2022/07/20 06:54:26;;;;;;;8.05;3.28;;;25.80;54.20;;;;;;5073831;28;20558;-76
2022/07/20 06:56:53;;;;;;;9.50;3.80;;;25.90;54.50;;;;;;5057463;28;20044;-76
2022/07/20 06:59:19;;;;;;;7.82;3.60;;;26.00;54.50;;;;;;5074174;28;20102;-76
2022/07/20 07:01:44;;;;;;;8.15;3.72;;;26.00;54.30;;;;;;5073833;28;20079;-76
2022/07/20 07:04:10;;;;;;;7.80;3.95;;;26.10;54.50;;;;;;5073664;28;20075;-75
2022/07/20 07:06:36;;;;;;;7.93;3.60;;;26.20;54.60;;;;;;5056056;28;20036;-75
2022/07/20 07:09:02;;;;;;;7.63;4.03;;;26.30;54.70;;;;;;5073594;28;20032;-76
2022/07/20 07:11:28;;;;;;;10.43;4.13;;;26.40;54.70;;;;;;5073902;28;20467;-76
2022/07/20 07:13:54;;;;;;;10.43;3.80;;;26.40;54.80;;;;;;5073493;28;20493;-76
2022/07/20 07:16:19;;;;;;;10.00;5.20;;;26.50;55.20;;;;;;5073505;28;20082;-76
2022/07/20 07:18:45;;;;;;;9.77;4.80;;;26.60;55.50;;;;;;5073650;28;20123;-76
2022/07/20 07:21:10;;;;;;;27.40;6.30;;;26.70;55.40;;;;;;5073415;28;20103;-76
2022/07/20 07:23:36;;;;;;;14.27;5.90;;;26.80;56.30;;;;;;5073360;28;20086;-76
2022/07/20 07:26:02;;;;;;;9.90;6.07;;;26.90;56.70;;;;;;5073565;28;20105;-76
2022/07/20 07:28:28;;;;;;;15.45;6.20;;;27.00;56.90;;;;;;5056737;28;20105;-76
2022/07/20 07:30:54;;;;;;;15.45;6.43;;;27.00;57.00;;;;;;5073260;28;20493;-75
2022/07/20 07:33:25;;;;;;;13.45;6.88;;;27.10;58.20;;;;;;5073431;28;20047;-75
2022/07/20 07:35:51;;;;;;;17.42;6.97;;;27.20;58.10;;;;;;5073124;28;20501;-75
2022/07/20 07:38:17;;;;;;;16.65;6.43;;;27.30;58.10;;;;;;5073376;28;20239;-75
2022/07/20 07:40:42;;;;;;;11.82;6.30;;;27.40;58.50;;;;;;5073053;28;20580;-76
2022/07/20 07:43:08;;;;;;;17.65;6.93;;;27.40;58.60;;;;;;5072864;28;20060;-76
2022/07/20 07:45:33;;;;;;;14.98;6.20;;;27.40;57.80;;;;;;5073192;28;20489;-75
2022/07/20 07:47:59;;;;;;;12.05;6.35;;;27.40;58.20;;;;;;5056178;28;20417;-75
2022/07/20 07:50:25;;;;;;;10.63;6.60;;;27.50;58.90;;;;;;5073054;28;20036;-75
2022/07/20 07:52:50;;;;;;;16.80;7.05;;;27.50;58.90;;;;;;5073070;28;20044;-75
2022/07/20 07:55:16;;;;;;;14.68;7.13;;;27.60;59.20;;;;;;5072772;28;20485;-76
2022/07/20 07:57:42;;;;;;;17.25;8.10;;;27.60;60.10;;;;;;5072694;28;20094;-76
2022/07/20 08:00:08;;;;;;;15.02;9.07;;;27.80;61.90;;;;;;5056248;28;20043;-76
2022/07/20 08:02:34;;;;;;;20.52;10.43;;;27.90;62.50;;;;;;5072843;28;20127;-76
2022/07/20 08:05:00;;;;;;;23.60;11.23;;;28.00;63.30;;;;;;5072528;28;20045;-76
2022/07/20 08:07:26;;;;;;;19.20;11.68;;;28.10;64.00;;;;;;5072531;28;20045;-76
2022/07/20 08:09:52;;;;;;;19.60;10.90;;;28.10;65.30;;;;;;5072483;28;20036;-76
2022/07/20 08:12:17;;;;;;;22.00;12.52;;;28.20;67.50;;;;;;5072383;28;20409;-76
2022/07/20 08:14:43;;;;;;;16.83;11.80;;;28.30;67.90;;;;;;5072364;28;20036;-76
2022/07/20 08:17:08;;;;;;;22.95;12.43;;;28.40;69.30;;;;;;5072347;28;20124;-76
2022/07/20 08:19:34;;;;;;;19.33;11.68;;;28.40;69.50;;;;;;5055345;28;20040;-76
2022/07/20 08:22:00;;;;;;;21.88;13.07;;;28.50;71.40;;;;;;5072573;28;20037;-76
2022/07/20 08:24:25;;;;;;;19.88;12.80;;;28.60;71.50;;;;;;5072211;28;20564;-76
2022/07/20 08:26:51;;;;;;;21.27;13.10;;;28.70;73.70;;;;;;5072833;28;20106;-76
2022/07/20 08:29:17;;;;;;;19.52;12.80;;;28.80;74.30;;;;;;5072095;28;20123;-76
2022/07/20 08:31:42;;;;;;;20.67;13.48;;;28.90;74.50;;;;;;5072511;28;20127;-75
2022/07/20 08:34:08;;;;;;;19.45;13.45;;;28.90;75.80;;;;;;5072042;28;20551;-75
2022/07/20 08:36:34;;;;;;;26.95;14.60;;;28.90;77.30;;;;;;5072724;28;20072;-75
2022/07/20 08:38:59;;;;;;;22.63;15.13;;;29.00;78.70;;;;;;5072276;28;20048;-76
2022/07/20 08:41:28;;;;;;;25.00;15.48;;;29.00;78.30;;;;;;5072036;28;20044;-76
2022/07/20 08:43:53;;;;;;;26.35;16.00;;;29.00;78.80;;;;;;5072170;28;20110;-76
2022/07/20 08:46:21;;;;;;;20.63;15.48;;;29.00;82.10;;;;;;5071929;28;20481;-76
2022/07/20 08:48:48;;;;;;;24.67;15.57;;;29.10;84.60;;;;;;5071888;28;20071;-76
2022/07/20 08:51:14;;;;;;;24.83;15.32;;;29.30;85.70;;;;;;5071878;28;20477;-76
2022/07/20 08:53:39;;;;;;;26.17;15.55;;;29.40;82.20;;;;;;5072588;28;20089;-75
2022/07/20 08:56:05;;;;;;;21.60;15.93;;;29.50;80.20;;;;;;5071873;28;20047;-76
2022/07/20 08:58:31;;;;;;;23.45;16.27;;;29.70;83.10;;;;;;5071804;28;20036;-76
2022/07/20 09:00:56;;;;;;;27.15;15.00;;;29.70;80.40;;;;;;5055088;28;20063;-76
2022/07/20 09:03:22;;;;;;;22.67;17.08;;;29.70;77.60;;;;;;5071702;28;20040;-76
2022/07/20 09:06:04;;;;;;;25.27;15.82;;;29.80;80.10;;;;;;5072023;28;20044;-76
2022/07/20 09:08:31;;;;;;;26.75;16.88;;;29.90;80.30;;;;;;5071840;28;20432;-76
2022/07/20 09:11:01;;;;;;;31.75;17.67;;;30.00;78.80;;;;;;5071570;28;20052;-76
2022/07/20 09:13:31;;;;;;;22.83;17.67;;;30.00;77.00;;;;;;5071670;28;20079;-76
2022/07/20 09:15:58;;;;;;;26.92;17.55;;;30.10;75.50;;;;;;5055000;28;20509;-76
2022/07/20 09:18:31;;;;;;;26.77;18.17;;;30.10;75.20;;;;;;5071479;28;20047;-76
2022/07/20 09:20:57;;;;;;;26.20;16.80;;;30.10;75.20;;;;;;5071673;28;20078;-76
2022/07/20 09:23:31;;;;;;;29.85;17.67;;;30.10;73.90;;;;;;5071513;28;20473;-77
2022/07/20 09:26:05;;;;;;;31.10;19.10;;;30.20;73.90;;;;;;5055378;28;20102;-76
2022/07/20 09:28:36;;;;;;;28.63;19.83;;;30.30;74.70;;;;;;5071467;28;20512;-76
2022/07/20 09:31:01;;;;;;;30.77;19.13;;;30.40;74.50;;;;;;5057110;28;20119;-76
2022/07/20 09:33:29;;;;;;;33.22;19.95;;;30.30;71.90;;;;;;5075432;28;20120;-76
2022/07/20 09:35:57;;;;;;;24.35;18.90;;;30.40;71.70;;;;;;5058721;28;20044;-76
2022/07/20 09:38:38;;;;;;;30.73;19.70;;;30.30;68.80;;;;;;5058967;28;20485;-76
2022/07/20 09:41:07;;;;;;;27.25;20.05;;;30.30;65.90;;;;;;5075650;28;20044;-76
2022/07/20 09:43:35;;;;;;;26.23;18.98;;;30.20;69.90;;;;;;5058574;28;20050;-76
2022/07/20 09:46:19;;;;;;;25.13;18.65;;;30.20;68.00;;;;;;5075222;28;20045;-76
2022/07/20 09:48:48;;;;;;;31.58;18.98;;;30.20;68.10;;;;;;5058443;28;20051;-76
2022/07/20 09:51:34;;;;;;;27.55;17.25;;;30.20;68.30;;;;;;5075126;28;20094;-76
2022/07/20 09:54:05;;;;;;;23.52;17.35;;;30.40;66.50;;;;;;5075077;28;20044;-76
2022/07/20 09:56:32;;;;;;;21.95;15.73;;;30.40;64.30;;;;;;5075145;28;20037;-76
2022/07/20 09:59:02;;;;;;;21.50;17.27;;;30.40;63.50;;;;;;5058285;28;20561;-76
2022/07/20 10:01:29;;;;;;;22.80;16.38;;;30.40;63.90;;;;;;5058298;28;20071;-76
2022/07/20 10:03:57;;;;;;;26.15;15.52;;;30.40;65.60;;;;;;5074812;28;20076;-76
2022/07/20 10:06:24;;;;;;;24.13;15.48;;;30.50;64.40;;;;;;5058122;28;20054;-76
2022/07/20 10:08:50;;;;;;;19.48;14.90;;;30.50;62.00;;;;;;5074775;28;20072;-76
2022/07/20 10:11:17;;;;;;;28.83;15.68;;;30.50;63.00;;;;;;5074777;28;20076;-77
2022/07/20 10:13:47;;;;;;;24.05;13.80;;;30.50;63.10;;;;;;5074656;28;20032;-76
2022/07/20 10:16:52;;;;;;;20.55;14.18;;;30.40;62.50;;;;;;5074686;28;20036;-76
2022/07/20 10:19:18;;;;;;;23.90;13.73;;;30.60;62.30;;;;;;5001075;28;20045;-76
2022/07/20 10:21:52;;;;;;;20.83;12.55;;;30.70;62.30;;;;;;5001051;28;20087;-76
2022/07/20 10:24:28;;;;;;;20.67;12.93;;;30.90;60.40;;;;;;5017494;28;20048;-76
2022/07/20 10:27:15;;;;;;;18.05;12.30;;;30.90;59.20;;;;;;5017243;28;20434;-77
2022/07/20 10:29:52;;;;;;;18.95;12.13;;;31.10;59.70;;;;;;5007780;28;20136;-76
2022/07/20 10:32:25;;;;;;;19.63;11.63;;;31.10;58.00;;;;;;5017138;28;20042;-76
2022/07/20 10:35:03;;;;;;;16.20;11.02;;;31.00;57.70;;;;;;5016940;28;20053;-76
2022/07/20 10:37:40;;;;;;;16.63;10.90;;;31.10;56.80;;;;;;5016995;28;20510;-76
2022/07/20 10:40:16;;;;;;;18.60;10.90;;;31.20;57.00;;;;;;5000694;28;20045;-76
2022/07/20 10:42:41;;;;;;;16.10;11.02;;;31.10;56.10;;;;;;5016736;28;20056;-76
2022/07/20 10:45:19;;;;;;;17.25;10.85;;;31.10;57.00;;;;;;5016750;28;20124;-76
2022/07/20 10:47:49;;;;;;;15.70;10.32;;;31.30;55.80;;;;;;5000329;28;20049;-76
2022/07/20 10:50:38;;;;;;;19.65;9.70;;;31.30;56.00;;;;;;5000364;28;20140;-76
2022/07/20 10:53:10;;;;;;;17.83;10.35;;;31.40;54.80;;;;;;5034556;28;20041;-76
2022/07/20 10:55:36;;;;;;;12.70;9.30;;;31.40;54.90;;;;;;5074266;28;20090;-76
2022/07/20 10:58:13;;;;;;;17.98;9.52;;;31.40;55.10;;;;;;5074167;28;20452;-76
2022/07/20 11:00:53;;;;;;;17.48;10.20;;;31.50;54.20;;;;;;5057209;28;20085;-76
2022/07/20 11:03:30;;;;;;;14.43;9.90;;;31.50;54.70;;;;;;5074122;28;20048;-76
2022/07/20 11:06:07;;;;;;;16.85;9.73;;;31.70;55.50;;;;;;5074116;28;20497;-76
2022/07/20 11:08:34;;;;;;;14.32;9.30;;;31.70;55.90;;;;;;5057053;28;20076;-76
2022/07/20 11:11:01;;;;;;;14.80;8.77;;;31.70;54.70;;;;;;5073663;28;20562;-76
2022/07/20 11:13:27;;;;;;;13.73;8.85;;;31.90;54.10;;;;;;5073574;28;20119;-76
2022/07/20 11:15:59;;;;;;;17.13;8.15;;;31.90;53.60;;;;;;5073608;28;20128;-76
2022/07/20 11:18:30;;;;;;;13.75;8.40;;;32.00;53.10;;;;;;5056787;28;20448;-76
2022/07/20 11:21:08;;;;;;;13.13;8.60;;;32.10;52.30;;;;;;5073722;28;20127;-76
2022/07/20 11:23:42;;;;;;;15.00;8.32;;;32.10;52.60;;;;;;5056717;28;20420;-76
2022/07/20 11:26:09;;;;;;;17.52;8.57;;;32.10;52.70;;;;;;5073663;28;20097;-76
2022/07/20 11:28:37;;;;;;;14.25;9.20;;;32.30;53.00;;;;;;5073222;28;20051;-76
2022/07/20 11:31:07;;;;;;;12.45;8.05;;;32.50;53.20;;;;;;5073261;28;20059;-76
2022/07/20 11:33:38;;;;;;;15.70;7.35;;;32.60;51.10;;;;;;5073155;28;20404;-76
2022/07/20 11:36:09;;;;;;;11.35;6.32;;;32.50;50.20;;;;;;5073166;28;20040;-76
2022/07/20 11:38:38;;;;;;;12.20;6.93;;;32.40;49.80;;;;;;5073315;28;20060;-76
2022/07/20 11:41:07;;;;;;;13.23;8.02;;;32.30;49.20;;;;;;5073075;28;20063;-76
2022/07/20 11:43:36;;;;;;;12.15;7.78;;;32.20;49.60;;;;;;5072956;28;20032;-77
2022/07/20 11:46:14;;;;;;;13.20;7.05;;;32.20;49.20;;;;;;5072928;28;20456;-76
2022/07/20 11:48:42;;;;;;;14.65;7.13;;;32.40;48.70;;;;;;5072855;28;20055;-76
2022/07/20 11:51:08;;;;;;;10.52;6.93;;;32.50;49.60;;;;;;5072870;28;20531;-76
2022/07/20 11:53:39;;;;;;;12.05;6.60;;;32.60;49.30;;;;;;5072412;28;20044;-76
2022/07/20 11:56:11;;;;;;;17.10;7.17;;;32.70;49.20;;;;;;5056238;28;20036;-76
2022/07/20 11:58:38;;;;;;;10.60;6.32;;;33.00;49.00;;;;;;5072723;28;20055;-76
2022/07/20 12:01:06;;;;;;;12.35;6.75;;;33.20;48.70;;;;;;5072702;28;20417;-76
2022/07/20 12:03:41;;;;;;;13.15;7.13;;;33.30;47.50;;;;;;5056160;28;20036;-76
2022/07/20 12:06:12;;;;;;;10.43;6.20;;;33.50;47.60;;;;;;5055930;28;20048;-76
2022/07/20 12:08:38;;;;;;;10.63;5.53;;;33.50;46.40;;;;;;5055894;28;20047;-76
2022/07/20 12:11:06;;;;;;;12.38;5.85;;;33.60;46.60;;;;;;5072516;28;20032;-79
2022/07/20 12:13:43;;;;;;;10.63;6.43;;;33.50;46.20;;;;;;5072351;28;20040;-73
2022/07/20 12:16:09;;;;;;;11.68;6.03;;;33.50;46.70;;;;;;5072634;28;20036;-73
2022/07/20 12:18:40;;;;;;;10.25;6.20;;;33.40;47.20;;;;;;5072221;28;20051;-73
2022/07/20 12:21:09;;;;;;;9.43;6.72;;;33.50;46.90;;;;;;5072377;28;20413;-76
2022/07/20 12:23:36;;;;;;;11.38;6.38;;;33.40;47.90;;;;;;5072204;28;20093;-75
2022/07/20 12:26:18;;;;;;;9.90;6.57;;;33.40;49.00;;;;;;5072516;28;20182;-76
2022/07/20 12:28:43;;;;;;;;;;;33.60;48.60;;;;;;5072580;28;20045;-76
2022/07/20 12:31:19;;;;;;;12.10;6.15;;;33.50;48.10;;;;;;5072194;28;19931;-76
2022/07/20 12:34:09;;;;;;;11.00;6.03;;;33.60;48.80;;;;;;5072001;28;20486;-75
2022/07/20 12:36:47;;;;;;;12.38;5.40;;;33.80;47.00;;;;;;5055403;28;20040;-75
2022/07/20 12:39:34;;;;;;;10.07;4.95;;;34.00;48.50;;;;;;5072350;28;20130;-76
2022/07/20 12:42:23;;;;;;;7.63;4.88;;;34.10;46.60;;;;;;5072058;28;20052;-74
2022/07/20 12:45:00;;;;;;;10.40;4.80;;;34.10;47.40;;;;;;5071905;28;20525;-74